Bonifay, Florida
Current Conditions -  °F | °C
As of 1:35 AM on Thursday 23 Oct 2014 (Local Time) from K54J Reporting Station
Clear Clear  
Wind Chill: 52°   Ceiling: Unl
Heat Index: 52°   Visibility: 10mi
Dew Point: 45°   Wind: 6mph
Humidity: 77%   Direction: 10°N
Pressure: 30.06"   Gusts: NA
Location:  30.79°N, 85.68°W
Report Text: K54J 230635Z AUTO 01005KT 10SM CLR 11/07 A3006 RMK AO2 T01110073
Loading
Personal Weather Stations






























Interactive Weather Map
Tropical Storm Tracking
New forecast layout! Learn more

10-Day Weather Forecast

Advertisements
Track Severe Weather on mobile